createdAt,value
2022-12-25T00:01:26.379Z,91.80
2022-12-25T00:05:08.468Z,91.90
2022-12-25T00:08:50.183Z,92.00
2022-12-25T00:12:31.918Z,92.10
2022-12-25T00:16:16.978Z,92.30
2022-12-25T00:19:58.684Z,92.40
2022-12-25T00:23:40.562Z,92.40
2022-12-25T00:27:22.227Z,92.40
2022-12-25T00:31:11.811Z,92.40
2022-12-25T00:34:53.531Z,92.40
2022-12-25T00:38:36.131Z,92.40
2022-12-25T00:42:20.771Z,92.40
2022-12-25T00:46:03.578Z,92.40
2022-12-25T00:49:45.475Z,92.40
2022-12-25T00:53:27.344Z,92.50
2022-12-25T00:57:09.128Z,92.40
2022-12-25T01:00:51.042Z,92.50
2022-12-25T01:04:32.743Z,92.50
2022-12-25T01:08:14.419Z,92.50
2022-12-25T01:11:56.188Z,92.50
2022-12-25T01:15:37.907Z,92.40
2022-12-25T01:19:19.601Z,92.40
2022-12-25T01:23:01.355Z,92.40
2022-12-25T01:26:43.157Z,92.40
2022-12-25T01:30:24.843Z,92.40
2022-12-25T01:34:06.564Z,92.40
2022-12-25T01:37:48.245Z,92.40
2022-12-25T01:41:30.061Z,92.50
2022-12-25T01:45:17.416Z,92.50
2022-12-25T01:49:11.646Z,92.50
2022-12-25T01:52:53.335Z,92.50
2022-12-25T01:56:35.062Z,92.50
2022-12-25T02:00:16.964Z,92.50
2022-12-25T02:04:03.116Z,92.60
2022-12-25T02:07:45.287Z,92.60
2022-12-25T02:11:45.353Z,92.60
2022-12-25T02:15:30.477Z,92.60
2022-12-25T02:19:39.505Z,92.50
2022-12-25T02:23:45.978Z,92.60
2022-12-25T02:27:54.423Z,92.60
2022-12-25T02:31:41.294Z,92.60
2022-12-25T02:35:28.612Z,92.60
2022-12-25T02:39:45.355Z,92.70
2022-12-25T02:43:52.986Z,93.00
2022-12-25T02:47:53.106Z,92.60
2022-12-25T02:51:55.172Z,92.60
2022-12-25T02:55:57.564Z,92.60
2022-12-25T02:59:58.619Z,92.70
2022-12-25T03:03:59.436Z,92.70
2022-12-25T03:07:41.267Z,92.80
2022-12-25T03:11:31.713Z,92.80
2022-12-25T03:15:32.028Z,92.80
2022-12-25T03:19:32.166Z,92.80
2022-12-25T03:23:32.915Z,92.80
2022-12-25T03:27:14.613Z,92.80
2022-12-25T03:31:14.246Z,92.80
2022-12-25T03:35:26.181Z,92.80
2022-12-25T03:39:37.391Z,92.70
2022-12-25T03:43:42.664Z,92.90
2022-12-25T03:47:58.641Z,92.60
2022-12-25T03:51:58.694Z,92.50
2022-12-25T03:55:58.714Z,92.60
2022-12-25T03:59:58.976Z,92.30
2022-12-25T04:03:59.046Z,92.20
2022-12-25T04:07:59.310Z,92.20
2022-12-25T04:12:02.823Z,92.20
2022-12-25T04:16:03.906Z,92.10
2022-12-25T04:20:04.146Z,92.00
2022-12-25T04:24:04.258Z,92.00
2022-12-25T04:28:04.444Z,92.00
2022-12-25T04:32:04.630Z,92.00
2022-12-25T04:36:06.133Z,92.00
2022-12-25T04:39:47.876Z,92.00
2022-12-25T04:43:29.708Z,92.00
2022-12-25T04:47:12.059Z,92.30
2022-12-25T04:50:53.854Z,92.10
2022-12-25T04:54:35.592Z,92.10
2022-12-25T04:58:17.291Z,92.10
2022-12-25T05:01:59.046Z,92.20
2022-12-25T05:05:40.802Z,92.20
2022-12-25T05:09:22.499Z,92.20
2022-12-25T05:13:04.184Z,92.20
2022-12-25T05:16:45.867Z,92.20
2022-12-25T05:20:27.581Z,92.10
2022-12-25T05:24:09.246Z,92.10
2022-12-25T05:27:54.044Z,92.10
2022-12-25T05:31:36.011Z,92.10
2022-12-25T05:35:17.750Z,92.10
2022-12-25T05:38:59.499Z,92.10
2022-12-25T05:42:41.275Z,92.10
2022-12-25T05:46:23.655Z,92.20
2022-12-25T05:50:07.068Z,92.10
2022-12-25T05:53:48.842Z,92.10
2022-12-25T05:57:30.921Z,92.10
2022-12-25T06:01:23.820Z,92.10
2022-12-25T06:05:05.898Z,92.10
2022-12-25T06:08:47.591Z,92.20
2022-12-25T06:12:29.274Z,92.30
2022-12-25T06:16:11.706Z,92.30
2022-12-25T06:19:54.111Z,92.70
2022-12-25T06:23:36.836Z,92.40
2022-12-25T06:27:18.535Z,92.40
2022-12-25T06:31:09.404Z,92.40
2022-12-25T06:34:51.167Z,92.50
2022-12-25T06:38:32.924Z,92.40
2022-12-25T06:42:15.773Z,92.50
2022-12-25T06:45:57.474Z,92.40
2022-12-25T06:49:39.222Z,92.30
2022-12-25T06:53:20.893Z,92.30
2022-12-25T06:57:02.607Z,92.20
2022-12-25T07:00:44.374Z,92.20
2022-12-25T07:04:37.985Z,92.10
2022-12-25T07:08:19.654Z,92.10
2022-12-25T07:12:05.216Z,92.10
2022-12-25T07:15:47.122Z,92.10
2022-12-25T07:19:29.091Z,92.10
2022-12-25T07:23:10.771Z,92.20
2022-12-25T07:26:52.469Z,92.20
2022-12-25T07:30:34.251Z,92.30
2022-12-25T07:34:18.993Z,92.30
2022-12-25T07:38:00.719Z,92.30
2022-12-25T07:41:43.087Z,92.20
2022-12-25T07:45:24.813Z,92.10
2022-12-25T07:49:06.485Z,92.10
2022-12-25T07:52:48.143Z,92.10
2022-12-25T07:56:29.978Z,92.00
2022-12-25T08:00:12.273Z,91.90
2022-12-25T08:04:01.106Z,91.90
2022-12-25T08:07:42.906Z,91.90
2022-12-25T08:11:24.624Z,91.90
2022-12-25T08:15:06.975Z,91.90
2022-12-25T08:18:48.903Z,91.80
2022-12-25T08:22:30.591Z,92.20
2022-12-25T08:26:14.440Z,91.80
2022-12-25T08:29:56.169Z,91.70
2022-12-25T08:33:37.874Z,91.60
2022-12-25T08:37:19.539Z,91.70
2022-12-25T08:41:01.317Z,91.60
2022-12-25T08:44:43.030Z,91.60
2022-12-25T08:48:24.743Z,91.60
2022-12-25T08:52:06.460Z,91.70
2022-12-25T08:55:48.134Z,91.70
2022-12-25T08:59:31.037Z,91.80
2022-12-25T09:03:12.799Z,91.80
2022-12-25T09:06:54.588Z,91.90
2022-12-25T09:10:37.597Z,92.00
2022-12-25T09:14:19.290Z,92.00
2022-12-25T09:18:01.132Z,92.00
2022-12-25T09:21:42.818Z,91.80
2022-12-25T09:25:24.504Z,91.80
2022-12-25T09:29:06.232Z,91.80
2022-12-25T09:32:48.001Z,91.80
2022-12-25T09:36:29.677Z,91.70
2022-12-25T09:40:18.002Z,91.70
2022-12-25T09:44:08.356Z,91.70
2022-12-25T09:47:51.368Z,91.70
2022-12-25T09:51:34.634Z,91.60
2022-12-25T09:55:20.822Z,91.60
2022-12-25T09:59:02.748Z,91.50
2022-12-25T10:03:08.583Z,91.40
2022-12-25T10:07:18.687Z,91.30
2022-12-25T10:11:07.136Z,91.20
2022-12-25T10:15:35.112Z,91.10
2022-12-25T10:19:27.640Z,91.00
2022-12-25T10:23:15.640Z,90.90
2022-12-25T10:26:57.354Z,90.90
2022-12-25T10:30:42.979Z,90.80
2022-12-25T10:34:24.753Z,90.80
2022-12-25T10:38:13.955Z,90.80
2022-12-25T10:42:17.258Z,90.60
2022-12-25T10:45:59.201Z,90.70
2022-12-25T10:49:40.975Z,90.70
2022-12-25T10:53:26.897Z,90.70
2022-12-25T10:57:08.552Z,90.70
2022-12-25T11:01:01.214Z,90.60
2022-12-25T11:04:42.881Z,90.60
2022-12-25T11:08:26.259Z,90.60
2022-12-25T11:12:17.804Z,90.50
2022-12-25T11:16:06.594Z,90.40
2022-12-25T11:19:58.903Z,90.20
2022-12-25T11:23:44.455Z,90.10
2022-12-25T11:27:29.418Z,90.00
2022-12-25T11:31:23.110Z,90.10
2022-12-25T11:35:10.363Z,90.00
2022-12-25T11:38:52.517Z,90.00
2022-12-25T11:42:38.214Z,90.10
2022-12-25T11:46:37.484Z,89.90
2022-12-25T11:50:30.775Z,89.70
2022-12-25T11:54:44.371Z,89.60
2022-12-25T11:58:36.663Z,89.40
2022-12-25T12:02:45.541Z,89.60
2022-12-25T12:06:47.976Z,89.20
2022-12-25T12:10:41.910Z,89.60
2022-12-25T12:14:39.539Z,89.20
2022-12-25T12:18:25.629Z,90.20
2022-12-25T12:22:07.373Z,89.00
2022-12-25T12:25:49.953Z,89.00
2022-12-25T12:29:39.111Z,88.90
2022-12-25T12:33:21.453Z,89.00
2022-12-25T12:37:07.661Z,89.20
2022-12-25T12:41:02.865Z,89.00
2022-12-25T12:44:44.799Z,89.20
2022-12-25T12:48:27.632Z,89.10
2022-12-25T12:52:24.915Z,89.50
2022-12-25T12:56:25.417Z,89.00
2022-12-25T13:00:11.943Z,89.10
2022-12-25T13:04:08.729Z,88.90
2022-12-25T13:07:58.648Z,88.30
2022-12-25T13:11:41.307Z,88.60
2022-12-25T13:15:25.011Z,88.70
2022-12-25T13:19:16.638Z,86.40
2022-12-25T13:22:58.304Z,88.70
2022-12-25T13:26:40.122Z,87.80
2022-12-25T13:30:22.434Z,87.90
2022-12-25T13:34:05.979Z,87.70
2022-12-25T13:37:47.663Z,87.80
2022-12-25T13:42:00.611Z,86.80
2022-12-25T13:45:42.334Z,85.70
2022-12-25T13:49:24.396Z,85.80
2022-12-25T13:53:13.908Z,85.70
2022-12-25T13:56:55.593Z,85.30
2022-12-25T14:00:51.039Z,85.80
2022-12-25T14:04:32.735Z,86.20
2022-12-25T14:08:20.922Z,87.60
2022-12-25T14:12:02.698Z,87.70
2022-12-25T14:15:44.803Z,88.30
2022-12-25T14:19:33.832Z,89.00
2022-12-25T14:23:15.947Z,90.20
2022-12-25T14:26:59.744Z,89.40
2022-12-25T14:30:41.494Z,89.30
2022-12-25T14:34:23.564Z,89.10
2022-12-25T14:38:05.436Z,88.70
2022-12-25T14:41:52.181Z,88.80
2022-12-25T14:45:35.628Z,88.50
2022-12-25T14:49:24.373Z,89.10
2022-12-25T14:53:15.013Z,88.90
2022-12-25T14:56:56.711Z,88.90
2022-12-25T15:00:38.804Z,89.00
2022-12-25T15:04:22.220Z,89.00
2022-12-25T15:08:13.349Z,88.60
2022-12-25T15:11:55.850Z,88.70
2022-12-25T15:16:04.176Z,88.80
2022-12-25T15:19:46.026Z,87.90
2022-12-25T15:23:27.828Z,88.20
2022-12-25T15:27:18.144Z,88.40
2022-12-25T15:31:00.131Z,87.90
2022-12-25T15:34:41.873Z,88.20
2022-12-25T15:38:24.557Z,88.50
2022-12-25T15:42:21.381Z,88.00
2022-12-25T15:46:03.101Z,87.80
2022-12-25T15:49:46.103Z,88.10
2022-12-25T15:53:27.838Z,87.90
2022-12-25T15:57:20.727Z,87.90
2022-12-25T16:01:02.775Z,87.70
2022-12-25T16:04:44.619Z,88.20
2022-12-25T16:08:26.413Z,88.40
2022-12-25T16:12:08.080Z,88.70
2022-12-25T16:15:49.838Z,88.40
2022-12-25T16:19:32.008Z,89.00
2022-12-25T16:23:13.718Z,89.20
2022-12-25T16:26:55.449Z,88.70
2022-12-25T16:30:38.263Z,88.90
2022-12-25T16:34:19.924Z,89.10
2022-12-25T16:38:01.784Z,89.30
2022-12-25T16:41:43.472Z,89.60
2022-12-25T16:45:25.152Z,89.50
2022-12-25T18:44:32.777Z,89.80
2022-12-25T18:48:14.762Z,89.50
2022-12-25T18:52:49.218Z,89.60
2022-12-25T18:56:02.996Z,89.30
2022-12-25T18:59:44.830Z,89.10
2022-12-25T19:03:26.657Z,89.10
2022-12-25T19:07:08.352Z,89.10
2022-12-25T19:10:50.225Z,89.30
2022-12-25T19:14:47.167Z,89.40
2022-12-25T19:18:31.319Z,89.40
2022-12-25T19:22:13.117Z,89.30
2022-12-25T19:25:54.796Z,89.20
2022-12-25T19:29:36.692Z,89.10
2022-12-25T19:33:18.757Z,89.10
2022-12-25T19:37:00.470Z,89.30
2022-12-25T19:41:00.055Z,89.40
2022-12-25T19:44:42.661Z,89.60
2022-12-25T19:48:24.508Z,89.90
2022-12-25T19:52:06.263Z,90.00
2022-12-25T19:55:47.932Z,90.10
2022-12-25T19:59:29.791Z,90.10
2022-12-25T20:03:11.551Z,90.20
2022-12-25T20:06:53.262Z,90.20
2022-12-25T20:10:35.186Z,90.30
2022-12-25T20:14:17.100Z,90.30
2022-12-25T20:17:59.146Z,90.30
2022-12-25T20:21:41.170Z,90.30
2022-12-25T20:25:22.870Z,90.40
2022-12-25T20:29:05.007Z,90.40
2022-12-25T20:32:50.626Z,90.40
2022-12-25T20:36:36.722Z,90.40
2022-12-25T20:40:19.758Z,90.40
2022-12-25T20:44:01.960Z,90.40
2022-12-25T20:47:43.747Z,90.80
2022-12-25T20:51:26.320Z,90.60
2022-12-25T20:55:08.272Z,90.60
2022-12-25T20:58:58.861Z,90.70
2022-12-25T21:02:42.688Z,90.80
2022-12-25T21:06:24.646Z,90.80
2022-12-25T21:10:07.317Z,90.80
2022-12-25T21:13:49.253Z,91.20
2022-12-25T21:17:30.975Z,91.00
2022-12-25T21:21:14.448Z,91.10
2022-12-25T21:24:56.184Z,91.20
2022-12-25T21:28:39.135Z,91.20
2022-12-25T21:32:39.268Z,91.30
2022-12-25T21:36:23.728Z,91.30
2022-12-25T21:40:11.327Z,91.30
2022-12-25T21:43:56.370Z,91.30
2022-12-25T21:48:01.971Z,91.40
2022-12-25T21:51:58.159Z,91.50
2022-12-25T21:55:39.837Z,91.50
2022-12-25T21:59:22.747Z,91.60
2022-12-25T22:03:04.686Z,91.70
2022-12-25T22:07:05.053Z,91.80
2022-12-25T22:10:48.016Z,91.90
2022-12-25T22:14:51.034Z,91.90
2022-12-25T22:18:53.831Z,91.80
2022-12-25T22:22:35.650Z,91.80
2022-12-25T22:26:20.776Z,91.70
2022-12-25T22:30:03.689Z,91.60
2022-12-25T22:33:45.359Z,91.60
2022-12-25T22:37:27.026Z,91.60
2022-12-25T22:41:08.974Z,92.00
2022-12-25T22:44:50.658Z,91.70
2022-12-25T22:48:32.561Z,91.70
2022-12-25T22:52:14.279Z,91.90
2022-12-25T22:55:55.981Z,91.70
2022-12-25T22:59:37.983Z,91.70
2022-12-25T23:03:19.707Z,91.70
2022-12-25T23:07:02.087Z,91.70
2022-12-25T23:10:43.992Z,91.70
2022-12-25T23:14:41.608Z,91.70
2022-12-25T23:18:41.748Z,91.60
2022-12-25T23:22:42.156Z,91.60
2022-12-25T23:26:23.878Z,91.50
2022-12-25T23:30:08.755Z,91.80
2022-12-25T23:33:50.455Z,91.50
2022-12-25T23:37:32.125Z,91.40
2022-12-25T23:41:13.938Z,91.40
2022-12-25T23:44:55.661Z,91.30
2022-12-25T23:48:37.583Z,91.20
2022-12-25T23:52:19.259Z,91.30
2022-12-25T23:56:00.997Z,91.20
2022-12-25T23:59:43.892Z,91.20
